createdAt,value
2017-11-12T00:00:07.786Z,14.60
2017-11-12T00:00:41.647Z,13.05
2017-11-12T00:01:15.531Z,13.85
2017-11-12T00:01:49.419Z,13.80
2017-11-12T00:02:23.312Z,12.45
2017-11-12T00:02:57.389Z,15.45
2017-11-12T00:03:31.279Z,14.45
2017-11-12T00:04:05.188Z,11.70
2017-11-12T00:04:39.073Z,15.45
2017-11-12T00:05:13.081Z,12.65
2017-11-12T00:05:46.947Z,13.93
2017-11-12T00:06:21.063Z,16.05
2017-11-12T00:06:55.272Z,15.05
2017-11-12T00:07:29.156Z,14.32
2017-11-12T00:08:03.182Z,14.80
2017-11-12T00:08:37.047Z,16.15
2017-11-12T00:09:10.948Z,14.45
2017-11-12T00:09:44.957Z,14.85
2017-11-12T00:10:18.951Z,13.05
2017-11-12T00:10:52.834Z,18.75
2017-11-12T00:11:26.692Z,15.90
2017-11-12T00:12:00.731Z,12.00
2017-11-12T00:12:34.634Z,16.35
2017-11-12T00:13:08.731Z,15.55
2017-11-12T00:13:42.612Z,13.48
2017-11-12T00:14:16.527Z,18.25
2017-11-12T00:14:50.404Z,16.73
2017-11-12T00:15:24.290Z,13.70
2017-11-12T00:15:58.175Z,15.57
2017-11-12T00:16:32.202Z,16.37
2017-11-12T00:17:06.077Z,17.87
2017-11-12T00:17:40.105Z,23.60
2017-11-12T00:18:14.091Z,15.55
2017-11-12T00:18:47.998Z,15.68
2017-11-12T00:19:22.402Z,13.20
2017-11-12T00:19:56.295Z,12.25
2017-11-12T00:20:30.177Z,12.45
2017-11-12T00:21:04.188Z,14.32
2017-11-12T00:21:38.072Z,15.88
2017-11-12T00:22:12.080Z,12.10
2017-11-12T00:22:45.960Z,12.30
2017-11-12T00:23:19.890Z,13.05
2017-11-12T00:23:53.753Z,16.65
2017-11-12T00:24:27.632Z,13.40
2017-11-12T00:25:01.553Z,15.68
2017-11-12T00:25:35.422Z,12.52
2017-11-12T00:26:09.349Z,14.40
2017-11-12T00:26:43.273Z,13.23
2017-11-12T00:27:17.169Z,18.27
2017-11-12T00:27:51.156Z,12.98
2017-11-12T00:28:25.136Z,15.32
2017-11-12T00:28:59.106Z,17.12
2017-11-12T00:29:32.975Z,17.12
2017-11-12T00:30:06.848Z,13.85
2017-11-12T00:30:40.843Z,14.55
2017-11-12T00:31:14.703Z,14.45
2017-11-12T00:31:48.683Z,12.60
2017-11-12T00:32:22.924Z,14.13
2017-11-12T00:32:57.586Z,13.93
2017-11-12T00:33:31.652Z,17.50
2017-11-12T00:34:05.737Z,14.38
2017-11-12T00:34:39.603Z,14.35
2017-11-12T00:35:13.461Z,16.55
2017-11-12T00:35:47.552Z,11.90
2017-11-12T00:36:21.453Z,15.77
2017-11-12T00:36:55.339Z,14.10
2017-11-12T00:37:29.327Z,14.52
2017-11-12T00:38:03.316Z,16.48
2017-11-12T00:38:37.199Z,14.75
2017-11-12T00:39:11.070Z,14.57
2017-11-12T00:39:44.964Z,13.65
2017-11-12T00:40:19.000Z,13.30
2017-11-12T00:40:52.879Z,17.45
2017-11-12T00:41:26.751Z,14.40
2017-11-12T00:42:00.636Z,16.77
2017-11-12T00:42:34.515Z,13.02
2017-11-12T00:43:08.418Z,15.20
2017-11-12T00:43:42.314Z,12.95
2017-11-12T00:44:16.185Z,12.98
2017-11-12T00:44:50.259Z,15.43
2017-11-12T00:45:24.111Z,14.38
2017-11-12T00:45:57.982Z,13.20
2017-11-12T00:46:31.946Z,18.08
2017-11-12T00:47:05.811Z,13.13
2017-11-12T00:47:39.792Z,14.35
2017-11-12T00:48:13.692Z,13.13
2017-11-12T00:48:47.560Z,13.25
2017-11-12T00:49:21.421Z,11.30
2017-11-12T00:49:55.527Z,11.32
2017-11-12T00:50:29.408Z,14.38
2017-11-12T00:51:03.295Z,11.55
2017-11-12T00:51:37.367Z,12.15
2017-11-12T00:52:11.500Z,14.23
2017-11-12T00:52:45.396Z,14.32
2017-11-12T00:53:19.390Z,15.07
2017-11-12T00:53:53.256Z,12.55
2017-11-12T00:54:27.128Z,14.45
2017-11-12T00:55:00.997Z,14.13
2017-11-12T00:55:34.875Z,15.65
2017-11-12T00:56:08.889Z,12.43
2017-11-12T00:56:42.798Z,11.25
2017-11-12T00:57:16.659Z,13.77
2017-11-12T00:57:50.537Z,12.60
2017-11-12T00:58:24.433Z,15.07
2017-11-12T00:58:58.502Z,15.70
2017-11-12T00:59:32.646Z,17.55
2017-11-12T01:00:06.574Z,14.05
2017-11-12T01:00:40.462Z,14.93
2017-11-12T01:01:14.338Z,11.60
2017-11-12T01:01:48.363Z,12.50
2017-11-12T01:02:22.230Z,12.80
2017-11-12T01:02:56.140Z,12.55
2017-11-12T01:03:30.368Z,11.85
2017-11-12T01:04:04.247Z,14.38
2017-11-12T01:04:38.245Z,14.77
2017-11-12T01:05:12.112Z,14.77
2017-11-12T01:05:46.128Z,13.85
2017-11-12T01:06:20.143Z,12.70
2017-11-12T01:06:54.015Z,16.10
2017-11-12T01:07:28.204Z,17.67
2017-11-12T01:08:02.088Z,13.20
2017-11-12T01:08:36.213Z,16.58
2017-11-12T01:09:10.328Z,13.32
2017-11-12T01:09:44.222Z,14.57
2017-11-12T01:10:18.202Z,13.98
2017-11-12T01:10:52.324Z,16.15
2017-11-12T01:11:26.195Z,11.93
2017-11-12T01:12:00.068Z,19.17
2017-11-12T01:12:34.082Z,13.55
2017-11-12T01:13:08.102Z,13.50
2017-11-12T01:13:42.045Z,17.20
2017-11-12T01:14:15.913Z,15.07
2017-11-12T01:14:49.785Z,12.07
2017-11-12T01:15:23.691Z,14.63
2017-11-12T01:15:57.672Z,14.30
2017-11-12T01:16:31.532Z,14.10
2017-11-12T01:17:05.450Z,15.68
2017-11-12T01:17:39.302Z,19.17
2017-11-12T01:18:13.162Z,15.15
2017-11-12T01:18:47.033Z,12.75
2017-11-12T01:19:21.057Z,18.50
2017-11-12T01:19:55.139Z,15.30
2017-11-12T01:20:29.049Z,13.80
2017-11-12T01:21:02.911Z,16.58
2017-11-12T01:21:36.941Z,18.30
2017-11-12T01:22:10.820Z,15.45
2017-11-12T01:22:44.689Z,17.85
2017-11-12T01:23:18.571Z,14.35
2017-11-12T01:23:52.467Z,16.70
2017-11-12T01:24:26.348Z,14.40
2017-11-12T01:25:00.299Z,18.37
2017-11-12T01:25:34.188Z,16.05
2017-11-12T01:26:08.045Z,13.32
2017-11-12T01:26:41.911Z,13.32
2017-11-12T01:27:15.874Z,13.45
2017-11-12T01:27:49.775Z,14.30
2017-11-12T01:28:23.676Z,13.55
2017-11-12T01:28:57.664Z,14.57
2017-11-12T01:29:31.554Z,19.15
2017-11-12T01:30:05.451Z,17.55
2017-11-12T01:30:39.448Z,16.35
2017-11-12T01:31:13.324Z,14.80
2017-11-12T01:31:47.364Z,18.23
2017-11-12T01:32:21.255Z,11.93
2017-11-12T01:32:55.264Z,17.65
2017-11-12T01:33:29.243Z,17.20
2017-11-12T01:34:03.125Z,16.67
2017-11-12T01:34:36.984Z,15.13
2017-11-12T01:35:11.031Z,11.45
2017-11-12T01:35:44.910Z,14.45
2017-11-12T01:36:18.816Z,21.20
2017-11-12T01:36:52.718Z,12.98
2017-11-12T01:37:26.573Z,19.85
2017-11-12T01:38:00.613Z,14.77
2017-11-12T01:38:34.601Z,16.00
2017-11-12T01:39:08.505Z,13.35
2017-11-12T01:39:42.385Z,15.15
2017-11-12T01:40:16.382Z,14.15
2017-11-12T01:40:50.251Z,17.25
2017-11-12T01:41:24.178Z,15.45
2017-11-12T01:41:58.051Z,18.23
2017-11-12T01:42:31.928Z,15.55
2017-11-12T01:43:06.168Z,12.02
2017-11-12T01:43:40.135Z,12.80
2017-11-12T01:44:14.008Z,17.33
2017-11-12T01:44:48.058Z,17.30
2017-11-12T01:45:21.963Z,17.80
2017-11-12T01:45:55.840Z,13.90
2017-11-12T01:46:29.750Z,16.33
2017-11-12T01:47:03.748Z,15.27
2017-11-12T01:47:37.603Z,16.60
2017-11-12T01:48:11.493Z,14.82
2017-11-12T01:48:45.373Z,19.08
2017-11-12T01:49:19.260Z,14.90
2017-11-12T01:49:53.140Z,17.08
2017-11-12T01:50:27.007Z,15.23
2017-11-12T01:51:01.011Z,12.88
2017-11-12T01:51:34.927Z,13.88
2017-11-12T01:52:09.007Z,14.77
2017-11-12T01:52:42.897Z,18.58
2017-11-12T01:53:16.774Z,24.40
2017-11-12T01:53:50.647Z,14.15
2017-11-12T01:54:24.813Z,13.55
2017-11-12T01:54:58.719Z,16.15
2017-11-12T01:55:32.617Z,15.57
2017-11-12T01:56:06.508Z,15.90
2017-11-12T01:56:40.390Z,17.02
2017-11-12T01:57:14.263Z,16.37
2017-11-12T01:57:48.175Z,15.10
2017-11-12T01:58:22.072Z,15.60
2017-11-12T01:58:56.082Z,19.73
2017-11-12T01:59:29.999Z,15.45
2017-11-12T02:00:04.276Z,15.27
2017-11-12T02:00:38.181Z,15.95
2017-11-12T02:01:12.061Z,17.33
2017-11-12T02:01:45.927Z,13.70
2017-11-12T02:02:20.064Z,16.48
2017-11-12T02:02:53.961Z,16.05
2017-11-12T02:03:27.900Z,16.00
2017-11-12T02:04:01.774Z,16.23
2017-11-12T02:04:35.680Z,17.30
2017-11-12T02:05:09.565Z,14.48
2017-11-12T02:05:43.473Z,15.55
2017-11-12T02:06:17.377Z,15.90
2017-11-12T02:06:51.249Z,14.90
2017-11-12T02:07:25.125Z,22.77
2017-11-12T02:07:59.013Z,16.70
2017-11-12T02:08:32.895Z,16.65
2017-11-12T02:09:06.768Z,19.30
2017-11-12T02:09:40.781Z,18.85
2017-11-12T02:10:14.653Z,14.93
2017-11-12T02:10:48.523Z,19.40
2017-11-12T02:11:22.399Z,13.68
2017-11-12T02:11:56.441Z,17.45
2017-11-12T02:12:30.325Z,13.68
2017-11-12T02:13:04.213Z,17.17
2017-11-12T02:13:38.095Z,12.68
2017-11-12T02:14:12.159Z,16.48
2017-11-12T02:14:46.633Z,17.30
2017-11-12T02:15:20.503Z,16.62
2017-11-12T02:15:54.374Z,13.55
2017-11-12T02:16:28.284Z,21.27
2017-11-12T02:17:02.144Z,17.95
2017-11-12T02:17:36.040Z,15.80
2017-11-12T02:18:10.036Z,13.90
2017-11-12T02:18:43.925Z,16.65
2017-11-12T02:19:17.812Z,16.42
2017-11-12T02:19:51.726Z,15.57
2017-11-12T02:20:25.621Z,15.15
2017-11-12T02:20:59.516Z,17.67
2017-11-12T02:21:33.608Z,15.88
2017-11-12T02:22:07.492Z,14.95
2017-11-12T02:22:41.397Z,14.85
2017-11-12T02:23:15.283Z,15.75
2017-11-12T02:23:49.178Z,17.00
2017-11-12T02:24:23.068Z,13.65
2017-11-12T02:24:56.942Z,14.02
2017-11-12T02:25:30.829Z,21.65
2017-11-12T02:26:04.713Z,13.40
2017-11-12T02:26:38.584Z,17.48
2017-11-12T02:27:12.451Z,16.40
2017-11-12T02:27:46.331Z,15.80
2017-11-12T02:28:20.204Z,14.35
2017-11-12T02:28:54.168Z,18.37
2017-11-12T02:29:28.173Z,16.37
2017-11-12T02:30:02.047Z,16.40
2017-11-12T02:30:35.928Z,15.45
2017-11-12T02:31:09.942Z,14.15
2017-11-12T02:31:43.821Z,16.62
2017-11-12T02:32:17.758Z,15.25
2017-11-12T02:32:51.822Z,16.08
2017-11-12T02:33:25.703Z,18.77
2017-11-12T02:33:59.572Z,15.38
2017-11-12T02:34:33.465Z,17.58
2017-11-12T02:35:07.353Z,15.60
2017-11-12T02:35:41.230Z,16.02
2017-11-12T02:36:15.098Z,16.73
2017-11-12T02:36:48.978Z,22.50
2017-11-12T02:37:22.860Z,16.50
2017-11-12T02:37:56.779Z,16.58
2017-11-12T02:38:30.653Z,19.20
2017-11-12T02:39:04.527Z,17.60
2017-11-12T02:39:38.397Z,21.95
2017-11-12T02:40:12.365Z,15.63
2017-11-12T02:40:46.242Z,15.40
2017-11-12T02:41:20.124Z,19.98
2017-11-12T02:41:54.007Z,17.20
2017-11-12T02:42:27.924Z,20.95
2017-11-12T02:43:01.791Z,18.67
2017-11-12T02:43:35.670Z,19.58
2017-11-12T02:44:09.569Z,17.67
2017-11-12T02:44:43.444Z,14.65
2017-11-12T02:45:17.353Z,21.70
2017-11-12T02:45:51.223Z,16.67
2017-11-12T02:46:25.132Z,16.58
2017-11-12T02:46:58.996Z,19.77
2017-11-12T02:47:33.016Z,18.67
2017-11-12T02:48:06.884Z,18.12
2017-11-12T02:48:40.794Z,15.25
2017-11-12T02:49:14.677Z,18.00
2017-11-12T02:49:48.555Z,16.85
2017-11-12T02:50:22.787Z,20.00
2017-11-12T02:50:56.679Z,15.68
2017-11-12T02:51:30.574Z,20.62
2017-11-12T02:52:04.473Z,17.90
2017-11-12T02:52:38.349Z,22.50
2017-11-12T02:53:12.220Z,19.25
2017-11-12T02:53:46.464Z,17.33
2017-11-12T02:54:20.340Z,18.30
2017-11-12T02:54:54.212Z,19.73
2017-11-12T02:55:28.148Z,21.27
2017-11-12T02:56:02.045Z,18.08
2017-11-12T02:56:35.916Z,18.42
2017-11-12T02:57:09.792Z,20.42
2017-11-12T02:57:43.672Z,19.23
2017-11-12T02:58:18.451Z,20.37
2017-11-12T02:58:52.438Z,21.70
2017-11-12T02:59:26.335Z,22.27
2017-11-12T03:00:00.209Z,17.83
2017-11-12T03:00:34.112Z,16.12
2017-11-12T03:01:07.995Z,18.87
2017-11-12T03:01:41.874Z,20.02
2017-11-12T03:02:15.808Z,21.62
2017-11-12T03:02:49.683Z,24.35
2017-11-12T03:03:23.557Z,20.92
2017-11-12T03:03:57.496Z,24.50
2017-11-12T03:04:31.495Z,18.70
2017-11-12T03:05:05.385Z,22.50
2017-11-12T03:05:39.277Z,22.15
2017-11-12T03:06:13.187Z,26.48
2017-11-12T03:06:47.058Z,20.58
2017-11-12T03:07:21.022Z,21.65
2017-11-12T03:07:54.883Z,17.65
2017-11-12T03:08:28.852Z,21.75
2017-11-12T03:09:02.980Z,19.80
2017-11-12T03:09:36.843Z,15.98
2017-11-12T03:10:10.734Z,23.15
2017-11-12T03:10:44.628Z,20.45
2017-11-12T03:11:18.496Z,22.90
2017-11-12T03:11:52.563Z,21.42
2017-11-12T03:12:26.462Z,19.98
2017-11-12T03:13:00.321Z,19.17
2017-11-12T03:13:34.203Z,19.62
2017-11-12T03:14:08.079Z,24.30
2017-11-12T03:14:42.126Z,21.30
2017-11-12T03:15:15.999Z,20.60
2017-11-12T03:15:49.886Z,21.80
2017-11-12T03:16:23.764Z,18.85
2017-11-12T03:16:57.710Z,18.70
2017-11-12T03:17:31.706Z,19.17
2017-11-12T03:18:05.592Z,22.37
2017-11-12T03:18:39.487Z,21.70
2017-11-12T03:19:13.356Z,22.90
2017-11-12T03:19:47.285Z,18.92
2017-11-12T03:20:21.174Z,21.83
2017-11-12T03:20:55.059Z,19.15
2017-11-12T03:21:28.996Z,18.10
2017-11-12T03:22:02.966Z,15.73
2017-11-12T03:22:36.852Z,19.83
2017-11-12T03:23:10.871Z,17.17
2017-11-12T03:23:44.984Z,21.30
2017-11-12T03:24:18.851Z,20.30
2017-11-12T03:24:52.864Z,22.10
2017-11-12T03:25:26.731Z,21.42
2017-11-12T03:26:00.615Z,19.45
2017-11-12T03:26:34.478Z,22.67
2017-11-12T03:27:08.351Z,17.87
2017-11-12T03:27:42.219Z,20.02
2017-11-12T03:28:16.094Z,19.45
2017-11-12T03:28:50.004Z,18.83
2017-11-12T03:29:24.135Z,19.92
2017-11-12T03:29:58.038Z,21.23
2017-11-12T03:30:32.133Z,20.42
2017-11-12T03:31:06.029Z,17.85
2017-11-12T03:31:39.919Z,21.75
2017-11-12T03:32:13.789Z,22.05
2017-11-12T03:32:47.667Z,18.48
2017-11-12T03:33:21.536Z,19.73
2017-11-12T03:33:55.501Z,19.87
2017-11-12T03:34:29.376Z,19.52
2017-11-12T03:35:03.601Z,21.45
2017-11-12T03:35:37.602Z,18.73
2017-11-12T03:36:11.591Z,22.10
2017-11-12T03:36:45.589Z,22.75
2017-11-12T03:37:19.567Z,20.67
2017-11-12T03:37:53.786Z,23.67
2017-11-12T03:38:27.899Z,21.15
2017-11-12T03:39:01.784Z,16.83
2017-11-12T03:39:35.675Z,23.42
2017-11-12T03:40:09.706Z,19.60
2017-11-12T03:40:43.682Z,19.20
2017-11-12T03:41:17.668Z,23.62
2017-11-12T03:41:51.885Z,19.23
2017-11-12T03:42:25.973Z,20.70
2017-11-12T03:42:59.842Z,22.98
2017-11-12T03:43:33.712Z,21.55
2017-11-12T03:44:07.593Z,22.70
2017-11-12T03:44:41.484Z,21.12
2017-11-12T03:45:15.371Z,20.90
2017-11-12T03:45:49.764Z,19.15
2017-11-12T03:46:24.360Z,22.17
2017-11-12T03:46:58.447Z,20.60
2017-11-12T03:47:32.365Z,19.30
2017-11-12T03:48:06.240Z,22.37
2017-11-12T03:48:40.140Z,17.02
2017-11-12T03:49:14.016Z,25.77
2017-11-12T03:49:47.889Z,17.40
2017-11-12T03:50:21.776Z,26.80
2017-11-12T03:50:55.655Z,23.80
2017-11-12T03:51:29.548Z,23.73
2017-11-12T03:52:03.424Z,25.30
2017-11-12T03:52:37.295Z,24.42
2017-11-12T03:53:11.195Z,20.65
2017-11-12T03:53:45.071Z,21.23
2017-11-12T03:54:19.104Z,23.27
2017-11-12T03:54:52.993Z,23.33
2017-11-12T03:55:26.896Z,18.45
2017-11-12T03:56:00.763Z,21.83
2017-11-12T03:56:34.660Z,18.40
2017-11-12T03:57:08.705Z,18.42
2017-11-12T03:57:42.702Z,28.33
2017-11-12T03:58:16.667Z,18.27
2017-11-12T03:58:50.676Z,22.73
2017-11-12T03:59:24.545Z,19.67
2017-11-12T03:59:58.562Z,19.60
2017-11-12T04:00:32.445Z,21.73
2017-11-12T04:01:06.680Z,21.40
2017-11-12T04:01:40.568Z,21.12
2017-11-12T04:02:14.462Z,19.65
2017-11-12T04:02:48.661Z,19.77
2017-11-12T04:03:22.950Z,23.05
2017-11-12T04:03:56.947Z,21.42
2017-11-12T04:04:30.829Z,18.95
2017-11-12T04:05:04.728Z,26.30
2017-11-12T04:05:38.862Z,23.45
2017-11-12T04:06:12.737Z,21.17
2017-11-12T04:06:46.652Z,21.98
2017-11-12T04:07:20.523Z,18.75
2017-11-12T04:07:54.400Z,20.45
2017-11-12T04:08:28.357Z,21.50
2017-11-12T04:09:02.228Z,25.70
2017-11-12T04:09:36.308Z,20.05
2017-11-12T04:10:10.220Z,22.80
2017-11-12T04:10:44.111Z,28.62
2017-11-12T04:11:18.005Z,18.85
2017-11-12T04:11:51.920Z,21.77
2017-11-12T04:12:26.015Z,21.42
2017-11-12T04:12:59.897Z,18.20
2017-11-12T04:13:33.809Z,21.20
2017-11-12T04:14:07.907Z,24.27
2017-11-12T04:14:41.891Z,20.08
2017-11-12T04:15:15.763Z,28.35
2017-11-12T04:15:49.639Z,16.15
2017-11-12T04:16:23.546Z,18.37
2017-11-12T04:16:57.429Z,23.00
2017-11-12T04:17:31.425Z,18.48
2017-11-12T04:18:05.564Z,21.23
2017-11-12T04:18:39.439Z,20.20
2017-11-12T04:19:13.378Z,22.58
2017-11-12T04:19:47.356Z,23.67
2017-11-12T04:20:21.224Z,23.92
2017-11-12T04:20:55.100Z,20.65
2017-11-12T04:21:29.073Z,21.35
2017-11-12T04:22:02.956Z,19.98
2017-11-12T04:22:36.926Z,20.33
2017-11-12T04:23:10.850Z,23.45
2017-11-12T04:23:44.719Z,23.73
2017-11-12T04:24:18.586Z,29.05
2017-11-12T04:24:52.511Z,19.37
2017-11-12T04:25:26.380Z,25.85
2017-11-12T04:26:00.466Z,20.35
2017-11-12T04:26:34.516Z,20.40
2017-11-12T04:27:08.407Z,23.45
2017-11-12T04:27:42.290Z,22.65
2017-11-12T04:28:16.179Z,25.88
2017-11-12T04:28:50.174Z,25.15
2017-11-12T04:29:24.185Z,22.67
2017-11-12T04:29:58.196Z,22.45
2017-11-12T04:30:32.064Z,25.15
2017-11-12T04:31:06.090Z,24.85
2017-11-12T04:31:39.956Z,25.00
2017-11-12T04:32:13.862Z,22.50
2017-11-12T04:32:47.744Z,24.63
2017-11-12T04:33:21.612Z,22.05
2017-11-12T04:33:55.511Z,22.33
2017-11-12T04:34:29.464Z,22.15
2017-11-12T04:35:03.336Z,28.08
2017-11-12T04:35:37.350Z,24.20
2017-11-12T04:36:11.585Z,22.90
2017-11-12T04:36:45.859Z,19.62
2017-11-12T04:37:19.750Z,22.10
2017-11-12T04:37:53.620Z,19.35
2017-11-12T04:38:27.509Z,25.10
2017-11-12T04:39:01.843Z,24.75
2017-11-12T04:39:35.716Z,22.48
2017-11-12T04:40:09.601Z,24.23
2017-11-12T04:40:43.642Z,21.83
2017-11-12T04:41:17.631Z,21.87
2017-11-12T04:41:51.537Z,20.98
2017-11-12T04:42:25.421Z,25.02
2017-11-12T04:42:59.417Z,24.05
2017-11-12T04:43:33.304Z,18.48
2017-11-12T04:44:07.174Z,21.98
2017-11-12T04:44:41.108Z,26.87
2017-11-12T04:45:14.978Z,20.62
2017-11-12T04:45:48.896Z,17.75
2017-11-12T04:46:22.788Z,27.75
2017-11-12T04:46:56.675Z,21.10
2017-11-12T04:47:30.576Z,26.80
2017-11-12T04:48:04.471Z,22.62
2017-11-12T04:48:38.356Z,19.52
2017-11-12T04:49:12.255Z,22.00
2017-11-12T04:49:46.253Z,22.87
2017-11-12T04:50:20.185Z,19.67
2017-11-12T04:50:54.260Z,21.67
2017-11-12T04:51:28.247Z,25.98
2017-11-12T04:52:02.234Z,26.50
2017-11-12T04:52:36.106Z,24.85
2017-11-12T04:53:10.152Z,22.87
2017-11-12T04:53:44.040Z,21.48
2017-11-12T04:54:18.055Z,23.58
2017-11-12T04:54:51.932Z,20.20
2017-11-12T04:55:25.804Z,22.98
2017-11-12T04:55:59.673Z,21.15
2017-11-12T04:56:33.762Z,25.25
2017-11-12T04:57:07.652Z,24.00
2017-11-12T04:57:41.626Z,23.42
2017-11-12T04:58:15.607Z,24.23
2017-11-12T04:58:49.846Z,22.40
2017-11-12T04:59:23.726Z,26.37
2017-11-12T04:59:57.589Z,22.05
2017-11-12T05:00:31.454Z,22.42
2017-11-12T05:01:05.404Z,23.77
2017-11-12T05:01:39.592Z,21.83
2017-11-12T05:02:13.471Z,22.17
2017-11-12T05:02:47.364Z,24.42
2017-11-12T05:03:21.403Z,18.37
2017-11-12T05:03:55.289Z,20.65
2017-11-12T05:04:29.299Z,21.83
2017-11-12T05:05:03.185Z,24.25
2017-11-12T05:05:37.083Z,21.85
2017-11-12T05:06:10.956Z,26.42
2017-11-12T05:06:44.827Z,20.25
2017-11-12T05:07:18.700Z,19.85
2017-11-12T05:07:52.705Z,18.10
2017-11-12T05:08:26.584Z,21.73
2017-11-12T05:09:00.470Z,23.75
2017-11-12T05:09:34.461Z,21.98
2017-11-12T05:10:08.338Z,20.55
2017-11-12T05:10:42.325Z,22.27
2017-11-12T05:11:16.195Z,19.62
2017-11-12T05:11:50.094Z,24.60
2017-11-12T05:12:23.984Z,19.30
2017-11-12T05:12:57.884Z,24.67
2017-11-12T05:13:32.114Z,18.80
2017-11-12T05:14:06.220Z,20.55
2017-11-12T05:14:40.319Z,26.23
2017-11-12T05:15:14.312Z,23.87
2017-11-12T05:15:48.164Z,22.67
2017-11-12T05:16:22.040Z,20.75
2017-11-12T05:16:55.999Z,32.80
2017-11-12T05:17:30.008Z,18.80
2017-11-12T05:18:04.014Z,20.88
2017-11-12T05:18:37.904Z,20.23
2017-11-12T05:19:11.781Z,22.02
2017-11-12T05:19:45.689Z,19.20
2017-11-12T05:20:19.895Z,25.48
2017-11-12T05:20:53.762Z,22.58
2017-11-12T05:21:27.877Z,22.73
2017-11-12T05:22:01.879Z,20.58
2017-11-12T05:22:35.761Z,21.55
2017-11-12T05:23:09.794Z,22.75
2017-11-12T05:23:43.809Z,23.42
2017-11-12T05:24:17.890Z,23.52
2017-11-12T05:24:51.772Z,19.15
2017-11-12T05:25:26.432Z,20.17
2017-11-12T05:26:00.292Z,16.58
2017-11-12T05:26:34.161Z,19.55
2017-11-12T05:27:08.043Z,20.70
2017-11-12T05:27:42.046Z,20.48
2017-11-12T05:28:16.086Z,20.30
2017-11-12T05:28:50.105Z,20.40
2017-11-12T05:29:24.008Z,23.45
2017-11-12T05:29:57.959Z,24.12
2017-11-12T05:30:31.840Z,20.23
2017-11-12T05:31:05.840Z,24.37
2017-11-12T05:31:39.733Z,18.00
2017-11-12T05:32:13.609Z,27.37
2017-11-12T05:32:47.626Z,23.77
2017-11-12T05:33:21.637Z,23.42
2017-11-12T05:33:55.532Z,21.00
2017-11-12T05:34:29.716Z,20.12
2017-11-12T05:35:03.938Z,22.92
2017-11-12T05:35:37.817Z,22.45
2017-11-12T05:36:11.681Z,24.00
2017-11-12T05:36:45.725Z,24.73
2017-11-12T05:37:19.592Z,19.27
2017-11-12T05:37:53.609Z,23.77
2017-11-12T05:38:27.509Z,19.75
2017-11-12T05:39:01.518Z,20.70
2017-11-12T05:39:35.395Z,17.05
2017-11-12T05:40:09.267Z,24.95
2017-11-12T05:40:43.401Z,24.77
2017-11-12T05:41:17.276Z,16.83
2017-11-12T05:41:51.162Z,21.62
2017-11-12T05:42:25.039Z,25.27
2017-11-12T05:42:58.913Z,19.67
2017-11-12T05:43:33.042Z,26.87
2017-11-12T05:44:06.924Z,19.83
2017-11-12T05:44:40.806Z,23.75
2017-11-12T05:45:14.779Z,25.98
2017-11-12T05:45:48.648Z,20.50
2017-11-12T05:46:22.763Z,17.73
2017-11-12T05:46:56.633Z,19.90
2017-11-12T05:47:30.565Z,24.50
2017-11-12T05:48:04.748Z,20.27
2017-11-12T05:48:38.628Z,22.40
2017-11-12T05:49:12.500Z,22.58
2017-11-12T05:49:46.389Z,18.80
2017-11-12T05:50:20.268Z,22.73
2017-11-12T05:50:54.248Z,30.33
2017-11-12T05:51:28.422Z,20.88
2017-11-12T05:52:02.292Z,19.23
2017-11-12T05:52:36.231Z,20.83
2017-11-12T05:53:10.514Z,22.83
2017-11-12T05:53:44.512Z,20.45
2017-11-12T05:54:18.516Z,27.62
2017-11-12T05:54:52.383Z,24.48
2017-11-12T05:55:26.424Z,24.15
2017-11-12T05:56:00.295Z,19.45
2017-11-12T05:56:34.173Z,18.75
2017-11-12T05:57:08.500Z,22.15
2017-11-12T05:57:42.364Z,21.60
2017-11-12T05:58:16.238Z,21.48
2017-11-12T05:58:50.131Z,21.83
2017-11-12T05:59:24.104Z,19.48
2017-11-12T05:59:57.989Z,22.65
2017-11-12T06:00:31.870Z,19.23
2017-11-12T06:01:05.776Z,18.60
2017-11-12T06:01:39.642Z,23.48
2017-11-12T06:02:13.503Z,19.98
2017-11-12T06:02:47.524Z,21.77
2017-11-12T06:03:21.390Z,25.73
2017-11-12T06:03:55.389Z,22.10
2017-11-12T06:04:29.286Z,25.95
2017-11-12T06:05:03.293Z,17.37
2017-11-12T06:05:37.349Z,20.98
2017-11-12T06:06:11.223Z,21.20
2017-11-12T06:06:45.108Z,23.17
2017-11-12T06:07:19.228Z,20.83
2017-11-12T06:07:53.232Z,18.20
2017-11-12T06:08:27.121Z,25.30
2017-11-12T06:09:01.014Z,21.00
2017-11-12T06:09:34.887Z,22.83
2017-11-12T06:10:08.751Z,21.80
2017-11-12T06:10:42.635Z,20.75
2017-11-12T06:11:16.523Z,21.33
2017-11-12T06:11:50.603Z,17.98
2017-11-12T06:12:24.510Z,19.12
2017-11-12T06:12:58.492Z,22.70
2017-11-12T06:13:32.372Z,21.92
2017-11-12T06:14:06.262Z,19.35
2017-11-12T06:14:40.154Z,20.05
2017-11-12T06:15:14.171Z,20.83
2017-11-12T06:15:48.034Z,22.73
2017-11-12T06:16:21.995Z,20.02
2017-11-12T06:16:55.990Z,22.17
2017-11-12T06:17:29.876Z,15.95
2017-11-12T06:18:03.744Z,19.85
2017-11-12T06:18:37.645Z,19.00
2017-11-12T06:19:11.568Z,19.85
2017-11-12T06:19:45.448Z,21.55
2017-11-12T06:20:19.321Z,22.62
2017-11-12T06:20:53.230Z,20.98
2017-11-12T06:21:27.130Z,17.37
2017-11-12T06:22:01.012Z,19.52
2017-11-12T06:22:34.875Z,19.95
2017-11-12T06:23:08.753Z,25.20
2017-11-12T06:23:42.620Z,23.55
2017-11-12T06:24:16.518Z,23.17
2017-11-12T06:24:50.415Z,22.08
2017-11-12T06:25:24.292Z,19.50
2017-11-12T06:25:58.206Z,26.02
2017-11-12T06:26:32.079Z,16.45
2017-11-12T06:27:05.954Z,25.00
2017-11-12T06:27:39.884Z,26.15
2017-11-12T06:28:13.772Z,18.48
2017-11-12T06:28:47.776Z,28.25
2017-11-12T06:29:21.697Z,26.42
2017-11-12T06:29:55.566Z,26.60
2017-11-12T06:30:29.707Z,27.60
2017-11-12T06:31:04.056Z,23.70
2017-11-12T06:31:37.926Z,31.77
2017-11-12T06:32:11.808Z,29.27
2017-11-12T06:32:45.674Z,23.38
2017-11-12T06:33:19.760Z,22.25
2017-11-12T06:33:53.637Z,18.58
2017-11-12T06:34:27.860Z,46.97
2017-11-12T06:35:02.145Z,44.92
2017-11-12T06:35:36.155Z,52.95
2017-11-12T06:36:10.049Z,57.67
2017-11-12T06:36:43.923Z,40.55
2017-11-12T06:37:17.839Z,30.05
2017-11-12T06:37:51.711Z,66.87
2017-11-12T06:38:25.953Z,86.97
2017-11-12T06:38:59.831Z,53.08
2017-11-12T06:39:33.721Z,48.60
2017-11-12T06:40:07.820Z,46.22
2017-11-12T06:40:41.838Z,85.87
2017-11-12T06:41:15.713Z,53.63
2017-11-12T06:41:49.812Z,33.58
2017-11-12T06:42:23.671Z,32.60
2017-11-12T06:42:57.550Z,30.10
2017-11-12T06:43:31.495Z,24.80
2017-11-12T06:44:05.412Z,29.77
2017-11-12T06:44:39.335Z,31.52
2017-11-12T06:45:13.407Z,31.87
2017-11-12T06:45:47.279Z,36.55
2017-11-12T06:46:21.318Z,34.35
2017-11-12T06:46:55.215Z,30.58
2017-11-12T06:47:29.099Z,38.40
2017-11-12T06:48:03.208Z,48.17
2017-11-12T06:48:37.080Z,37.55
2017-11-12T06:49:11.075Z,46.15
2017-11-12T06:49:44.992Z,26.15
2017-11-12T06:50:18.867Z,35.30
2017-11-12T06:50:52.864Z,34.85
2017-11-12T06:51:26.735Z,36.10
2017-11-12T06:52:00.638Z,27.33
2017-11-12T06:52:34.583Z,29.83
2017-11-12T06:53:08.739Z,23.17
2017-11-12T06:53:42.619Z,26.98
2017-11-12T06:54:16.544Z,22.45
2017-11-12T06:54:50.454Z,21.00
2017-11-12T06:55:24.640Z,30.95
2017-11-12T06:55:58.513Z,35.28
2017-11-12T06:56:32.400Z,22.80
2017-11-12T06:57:06.297Z,27.13
2017-11-12T06:57:40.168Z,29.02
2017-11-12T06:58:14.042Z,29.73
2017-11-12T06:58:47.921Z,31.73
2017-11-12T06:59:21.818Z,40.88
2017-11-12T06:59:55.723Z,34.60
2017-11-12T07:00:29.587Z,26.50
2017-11-12T07:01:03.460Z,36.42
2017-11-12T07:01:37.599Z,53.17
2017-11-12T07:02:11.486Z,32.70
2017-11-12T07:02:45.674Z,22.83
2017-11-12T07:03:19.671Z,29.85
2017-11-12T07:03:53.684Z,21.85
2017-11-12T07:04:27.567Z,18.50
2017-11-12T07:05:01.476Z,28.05
2017-11-12T07:05:35.352Z,33.67
2017-11-12T07:06:09.260Z,36.22
2017-11-12T07:06:43.124Z,32.88
2017-11-12T07:07:17.002Z,31.40
2017-11-12T07:07:51.048Z,24.10
2017-11-12T07:08:24.915Z,24.33
2017-11-12T07:08:58.839Z,30.10
2017-11-12T07:09:32.707Z,35.97
2017-11-12T07:10:06.588Z,32.75
2017-11-12T07:10:40.536Z,24.37
2017-11-12T07:11:14.529Z,19.45
2017-11-12T07:11:48.398Z,22.42
2017-11-12T07:12:22.855Z,28.55
2017-11-12T07:12:57.029Z,26.77
2017-11-12T07:13:30.899Z,32.05
2017-11-12T07:14:04.829Z,32.17
2017-11-12T07:14:38.710Z,25.42
2017-11-12T07:15:12.587Z,17.15
2017-11-12T07:15:46.498Z,21.73
2017-11-12T07:16:20.501Z,17.62
2017-11-12T07:16:54.403Z,24.00